createdAt,value
2018-08-17T00:01:09.532Z,27.40
2018-08-17T00:03:42.030Z,27.50
2018-08-17T00:06:14.984Z,27.40
2018-08-17T00:08:47.688Z,27.40
2018-08-17T00:11:20.155Z,27.40
2018-08-17T00:13:52.723Z,27.40
2018-08-17T00:16:25.475Z,27.40
2018-08-17T00:18:58.055Z,27.40
2018-08-17T00:21:30.780Z,27.40
2018-08-17T00:24:03.279Z,27.30
2018-08-17T00:26:35.948Z,27.30
2018-08-17T00:29:08.943Z,27.30
2018-08-17T00:31:41.858Z,27.10
2018-08-17T00:34:14.568Z,27.20
2018-08-17T00:36:47.363Z,27.10
2018-08-17T00:39:19.838Z,27.10
2018-08-17T00:41:52.130Z,27.10
2018-08-17T00:44:24.568Z,27.10
2018-08-17T00:46:56.694Z,27.00
2018-08-17T00:49:29.276Z,27.00
2018-08-17T00:52:01.651Z,26.90
2018-08-17T00:54:33.939Z,26.90
2018-08-17T00:57:06.645Z,26.80
2018-08-17T00:59:38.859Z,26.80
2018-08-17T01:02:11.297Z,26.80
2018-08-17T01:04:43.796Z,26.80
2018-08-17T01:07:16.072Z,26.70
2018-08-17T01:09:48.815Z,26.70
2018-08-17T01:12:21.464Z,26.70
2018-08-17T01:14:54.010Z,26.70
2018-08-17T01:17:26.556Z,26.60
2018-08-17T01:19:59.182Z,26.50
2018-08-17T01:22:31.718Z,26.50
2018-08-17T01:25:04.574Z,26.40
2018-08-17T01:27:37.088Z,26.30
2018-08-17T01:30:10.472Z,26.30
2018-08-17T01:32:43.015Z,26.30
2018-08-17T01:35:15.157Z,26.20
2018-08-17T01:37:47.886Z,26.10
2018-08-17T01:40:20.504Z,26.00
2018-08-17T01:42:52.848Z,26.00
2018-08-17T01:45:25.376Z,25.80
2018-08-17T01:47:57.828Z,25.70
2018-08-17T01:50:30.156Z,25.70
2018-08-17T01:53:02.470Z,25.60
2018-08-17T01:55:35.106Z,25.60
2018-08-17T01:58:07.708Z,25.50
2018-08-17T02:00:39.984Z,25.50
2018-08-17T02:03:12.389Z,25.40
2018-08-17T02:05:44.716Z,25.30
2018-08-17T02:08:16.996Z,25.30
2018-08-17T02:10:52.733Z,25.20
2018-08-17T02:13:25.519Z,25.20
2018-08-17T02:15:57.916Z,25.10
2018-08-17T02:18:29.978Z,25.00
2018-08-17T02:21:02.889Z,24.90
2018-08-17T02:23:35.245Z,24.80
2018-08-17T02:26:08.028Z,24.70
2018-08-17T02:28:40.442Z,24.60
2018-08-17T02:31:12.663Z,24.50
2018-08-17T02:33:45.031Z,24.40
2018-08-17T02:36:17.291Z,24.30
2018-08-17T02:38:49.766Z,24.20
2018-08-17T02:41:22.121Z,24.10
2018-08-17T02:43:54.234Z,24.00
2018-08-17T02:46:26.912Z,23.90
2018-08-17T02:48:58.996Z,23.80
2018-08-17T02:51:31.558Z,23.70
2018-08-17T02:54:04.062Z,23.70
2018-08-17T02:56:36.345Z,23.60
2018-08-17T02:59:08.717Z,23.60
2018-08-17T03:01:41.099Z,23.50
2018-08-17T03:04:13.311Z,23.40
2018-08-17T03:06:45.807Z,23.40
2018-08-17T03:09:18.229Z,23.30
2018-08-17T03:11:50.729Z,23.30
2018-08-17T03:14:23.130Z,23.20
2018-08-17T03:16:55.494Z,23.10
2018-08-17T03:19:27.882Z,23.10
2018-08-17T03:22:00.676Z,23.00
2018-08-17T03:24:33.333Z,23.00
2018-08-17T03:27:06.106Z,22.80
2018-08-17T03:29:39.025Z,22.80
2018-08-17T03:32:11.543Z,22.70
2018-08-17T03:34:43.867Z,22.60
2018-08-17T03:37:16.860Z,22.60
2018-08-17T03:39:49.230Z,22.50
2018-08-17T03:42:22.863Z,22.40
2018-08-17T03:44:55.101Z,22.30
2018-08-17T03:47:27.689Z,22.20
2018-08-17T03:50:00.300Z,22.10
2018-08-17T03:52:32.705Z,22.00
2018-08-17T03:55:06.076Z,21.90
2018-08-17T03:57:38.682Z,21.80
2018-08-17T04:00:11.262Z,21.80
2018-08-17T04:02:43.729Z,21.70
2018-08-17T04:05:16.189Z,21.60
2018-08-17T04:07:49.973Z,21.50
2018-08-17T04:10:22.550Z,21.40
2018-08-17T04:12:55.008Z,21.30
2018-08-17T04:15:27.104Z,21.20
2018-08-17T04:17:59.609Z,21.10
2018-08-17T04:20:31.865Z,21.10
2018-08-17T04:23:04.413Z,21.00
2018-08-17T04:25:36.753Z,20.90
2018-08-17T04:28:10.286Z,20.80
2018-08-17T04:30:42.591Z,20.70
2018-08-17T04:33:15.054Z,20.60
2018-08-17T04:35:47.447Z,20.40
2018-08-17T04:38:19.919Z,20.40
2018-08-17T04:40:52.644Z,20.30
2018-08-17T04:43:24.498Z,20.20
2018-08-17T04:45:56.360Z,20.10
2018-08-17T04:48:29.898Z,20.10
2018-08-17T04:51:02.393Z,19.90
2018-08-17T04:53:35.313Z,19.90
2018-08-17T04:56:08.591Z,19.70
2018-08-17T04:58:41.170Z,19.60
2018-08-17T05:01:13.469Z,19.60
2018-08-17T05:03:45.857Z,19.50
2018-08-17T05:06:18.324Z,19.40
2018-08-17T05:08:50.913Z,19.30
2018-08-17T05:11:23.305Z,19.20
2018-08-17T05:13:55.736Z,19.10
2018-08-17T05:16:28.164Z,19.10
2018-08-17T05:19:00.583Z,19.10
2018-08-17T05:21:33.365Z,19.00
2018-08-17T05:24:05.791Z,18.90
2018-08-17T05:26:38.219Z,18.80
2018-08-17T05:29:10.737Z,18.80
2018-08-17T05:31:43.218Z,18.70
2018-08-17T05:34:15.861Z,18.60
2018-08-17T05:36:48.513Z,18.50
2018-08-17T05:39:21.364Z,18.50
2018-08-17T05:41:53.734Z,18.40
2018-08-17T05:44:26.000Z,18.30
2018-08-17T05:46:58.581Z,18.20
2018-08-17T05:49:31.186Z,18.10
2018-08-17T05:52:03.892Z,18.00
2018-08-17T05:54:36.257Z,18.00
2018-08-17T05:57:08.845Z,17.90
2018-08-17T05:59:41.254Z,17.80
2018-08-17T06:02:13.409Z,17.80
2018-08-17T06:04:45.954Z,17.70
2018-08-17T06:07:18.257Z,17.60
2018-08-17T06:09:50.418Z,17.60
2018-08-17T06:12:23.723Z,17.50
2018-08-17T06:14:56.119Z,17.50
2018-08-17T06:17:28.728Z,17.40
2018-08-17T06:20:01.153Z,17.40
2018-08-17T06:22:33.494Z,17.30
2018-08-17T06:25:10.672Z,17.30
2018-08-17T06:27:43.268Z,17.20
2018-08-17T06:30:16.730Z,17.20
2018-08-17T06:32:49.134Z,17.10
2018-08-17T06:35:21.487Z,17.00
2018-08-17T06:37:54.603Z,17.00
2018-08-17T06:40:26.914Z,16.90
2018-08-17T06:42:59.363Z,16.80
2018-08-17T06:45:31.900Z,16.80
2018-08-17T06:48:04.601Z,16.70
2018-08-17T06:50:37.105Z,16.70
2018-08-17T06:53:09.376Z,16.60
2018-08-17T06:55:42.175Z,16.60
2018-08-17T06:58:15.431Z,16.50
2018-08-17T07:00:48.039Z,16.50
2018-08-17T07:03:20.610Z,16.40
2018-08-17T07:05:53.208Z,16.40
2018-08-17T07:08:25.462Z,16.40
2018-08-17T07:10:58.042Z,16.30
2018-08-17T07:13:30.577Z,16.20
2018-08-17T07:16:03.049Z,16.20
2018-08-17T07:18:35.460Z,16.20
2018-08-17T07:21:07.493Z,16.20
2018-08-17T07:23:40.014Z,16.10
2018-08-17T07:26:12.280Z,16.10
2018-08-17T07:28:44.791Z,16.10
2018-08-17T07:31:17.556Z,16.00
2018-08-17T07:33:50.422Z,16.00
2018-08-17T07:36:22.800Z,16.00
2018-08-17T07:38:55.466Z,16.00
2018-08-17T07:41:27.785Z,15.90
2018-08-17T07:44:00.196Z,15.90
2018-08-17T07:46:32.707Z,15.90
2018-08-17T07:49:05.085Z,15.80
2018-08-17T07:51:37.534Z,15.80
2018-08-17T07:54:10.070Z,15.80
2018-08-17T07:56:42.524Z,15.70
2018-08-17T07:59:14.886Z,15.70
2018-08-17T08:01:47.671Z,15.60
2018-08-17T08:04:20.175Z,15.60
2018-08-17T08:06:52.970Z,15.50
2018-08-17T08:09:25.407Z,15.50
2018-08-17T08:11:57.905Z,15.40
2018-08-17T08:14:30.308Z,15.40
2018-08-17T08:17:02.932Z,15.40
2018-08-17T08:19:35.025Z,15.30
2018-08-17T08:22:07.432Z,15.30
2018-08-17T08:24:41.271Z,15.20
2018-08-17T08:27:14.880Z,15.20
2018-08-17T08:29:46.947Z,15.10
2018-08-17T08:32:19.792Z,15.10
2018-08-17T08:34:52.412Z,15.10
2018-08-17T08:37:24.765Z,15.00
2018-08-17T08:39:57.155Z,15.00
2018-08-17T08:42:29.565Z,14.90
2018-08-17T08:45:01.977Z,14.90
2018-08-17T08:47:34.803Z,14.80
2018-08-17T08:50:07.319Z,14.80
2018-08-17T08:52:41.627Z,14.80
2018-08-17T08:55:14.097Z,14.70
2018-08-17T08:57:46.858Z,14.60
2018-08-17T09:00:19.479Z,14.60
2018-08-17T09:02:52.004Z,14.60
2018-08-17T09:05:24.641Z,14.50
2018-08-17T09:07:57.499Z,14.40
2018-08-17T09:10:29.770Z,14.40
2018-08-17T09:13:02.362Z,14.40
2018-08-17T09:15:34.890Z,14.30
2018-08-17T09:18:07.479Z,14.30
2018-08-17T09:20:40.247Z,14.20
2018-08-17T09:23:12.933Z,14.20
2018-08-17T09:25:45.195Z,14.20
2018-08-17T09:28:17.703Z,14.10
2018-08-17T09:30:50.272Z,14.10
2018-08-17T09:33:23.198Z,14.00
2018-08-17T09:35:55.950Z,14.00
2018-08-17T09:38:28.624Z,13.90
2018-08-17T09:41:01.167Z,13.90
2018-08-17T09:43:33.551Z,13.80
2018-08-17T09:46:05.712Z,13.80
2018-08-17T09:48:37.993Z,13.70
2018-08-17T09:51:10.509Z,13.60
2018-08-17T09:53:42.799Z,13.60
2018-08-17T09:56:15.985Z,13.50
2018-08-17T09:58:48.591Z,13.50
2018-08-17T10:01:25.596Z,13.40
2018-08-17T10:04:02.608Z,13.40
2018-08-17T10:06:40.348Z,13.40
2018-08-17T10:09:20.113Z,13.30
2018-08-17T10:11:53.282Z,13.30
2018-08-17T10:14:25.794Z,13.30
2018-08-17T10:16:58.914Z,13.20
2018-08-17T10:19:31.524Z,13.20
2018-08-17T10:22:04.259Z,13.10
2018-08-17T10:24:36.421Z,13.10
2018-08-17T10:27:08.835Z,13.00
2018-08-17T10:29:42.173Z,13.00
2018-08-17T10:32:14.844Z,13.00
2018-08-17T10:34:47.148Z,12.90
2018-08-17T10:37:19.368Z,12.90
2018-08-17T10:39:53.471Z,12.90
2018-08-17T10:42:25.992Z,12.90
2018-08-17T10:44:58.461Z,12.80
2018-08-17T10:47:30.833Z,12.80
2018-08-17T10:50:07.604Z,12.70
2018-08-17T10:52:39.832Z,12.70
2018-08-17T10:55:13.018Z,12.60
2018-08-17T10:57:45.723Z,12.60
2018-08-17T11:00:19.376Z,12.60
2018-08-17T11:02:51.749Z,12.60
2018-08-17T11:05:24.087Z,12.60
2018-08-17T11:07:56.765Z,12.60
2018-08-17T11:10:29.329Z,12.60
2018-08-17T11:13:01.687Z,12.60
2018-08-17T11:15:34.086Z,12.60
2018-08-17T11:18:06.204Z,12.60
2018-08-17T11:20:38.708Z,12.60
2018-08-17T11:23:11.183Z,12.60
2018-08-17T11:25:43.374Z,12.60
2018-08-17T11:28:15.892Z,12.50
2018-08-17T11:30:48.485Z,12.50
2018-08-17T11:33:25.975Z,12.50
2018-08-17T11:35:58.973Z,12.50
2018-08-17T11:38:31.209Z,12.50
2018-08-17T11:41:03.388Z,12.50
2018-08-17T11:43:35.852Z,12.40
2018-08-17T11:46:08.198Z,12.40
2018-08-17T11:48:40.919Z,12.40
2018-08-17T11:51:13.292Z,12.40
2018-08-17T11:53:48.702Z,12.40
2018-08-17T11:56:21.393Z,12.30
2018-08-17T11:58:53.860Z,12.30
2018-08-17T12:01:28.679Z,12.30
2018-08-17T12:04:00.804Z,12.30
2018-08-17T12:06:33.275Z,12.20
2018-08-17T12:09:06.028Z,12.20
2018-08-17T12:11:38.478Z,12.20
2018-08-17T12:14:10.996Z,12.20
2018-08-17T12:16:43.955Z,12.10
2018-08-17T12:19:16.791Z,12.00
2018-08-17T12:21:49.723Z,12.00
2018-08-17T12:24:22.229Z,12.00
2018-08-17T12:26:55.032Z,12.00
2018-08-17T12:29:27.311Z,12.00
2018-08-17T12:31:59.952Z,11.90
2018-08-17T12:34:32.959Z,11.90
2018-08-17T12:37:05.676Z,11.90
2018-08-17T12:39:38.546Z,11.80
2018-08-17T12:42:10.803Z,11.80
2018-08-17T12:44:43.521Z,11.80
2018-08-17T12:47:15.781Z,11.80
2018-08-17T12:49:48.248Z,11.80
2018-08-17T12:52:20.676Z,11.70
2018-08-17T12:54:53.566Z,11.70
2018-08-17T12:57:30.269Z,11.70
2018-08-17T13:00:02.770Z,11.60
2018-08-17T13:02:35.478Z,11.60
2018-08-17T13:05:07.940Z,11.60
2018-08-17T13:07:40.870Z,11.60
2018-08-17T13:10:13.247Z,11.50
2018-08-17T13:12:54.209Z,11.50
2018-08-17T13:15:27.078Z,11.50
2018-08-17T13:17:59.750Z,11.50
2018-08-17T13:20:31.816Z,11.40
2018-08-17T13:23:04.370Z,11.40
2018-08-17T13:25:36.586Z,11.40
2018-08-17T13:28:09.749Z,11.40
2018-08-17T13:30:42.183Z,11.40
2018-08-17T13:33:14.339Z,11.40
2018-08-17T13:35:46.889Z,11.30
2018-08-17T13:38:19.843Z,11.30
2018-08-17T13:40:52.292Z,11.10
2018-08-17T13:43:25.427Z,11.30
2018-08-17T13:45:57.863Z,11.30
2018-08-17T13:48:30.318Z,11.30
2018-08-17T13:51:02.838Z,11.30
2018-08-17T13:53:35.540Z,11.30
2018-08-17T13:56:09.205Z,11.40
2018-08-17T13:58:42.078Z,11.50
2018-08-17T14:01:14.689Z,11.50
2018-08-17T14:03:47.018Z,11.50
2018-08-17T14:06:19.304Z,11.50
2018-08-17T14:08:51.748Z,11.60
2018-08-17T14:11:24.547Z,11.60
2018-08-17T14:13:56.898Z,11.60
2018-08-17T14:16:28.939Z,11.80
2018-08-17T14:19:01.331Z,11.80
2018-08-17T14:21:34.279Z,12.00
2018-08-17T14:24:06.623Z,12.10
2018-08-17T14:26:38.909Z,12.20
2018-08-17T14:31:52.805Z,12.50
2018-08-17T14:34:25.307Z,12.60
2018-08-17T14:36:57.767Z,12.70
2018-08-17T14:39:30.488Z,12.90
2018-08-17T14:42:03.607Z,13.10
2018-08-17T14:44:36.063Z,13.20
2018-08-17T14:47:08.435Z,13.30
2018-08-17T14:49:40.685Z,13.50
2018-08-17T14:52:13.067Z,13.60
2018-08-17T14:54:45.265Z,13.80
2018-08-17T14:57:17.385Z,13.90
2018-08-17T14:59:50.054Z,14.10
2018-08-17T15:02:22.575Z,14.20
2018-08-17T15:04:54.980Z,14.40
2018-08-17T15:07:27.690Z,14.50
2018-08-17T15:10:00.088Z,14.60
2018-08-17T15:12:32.502Z,14.80
2018-08-17T15:15:04.886Z,14.90
2018-08-17T15:17:37.711Z,15.10
2018-08-17T15:20:11.434Z,15.30
2018-08-17T15:22:43.994Z,15.90
2018-08-17T15:25:16.175Z,16.60
2018-08-17T15:27:48.686Z,17.30
2018-08-17T15:30:21.070Z,17.90
2018-08-17T15:32:54.263Z,18.60
2018-08-17T15:35:26.412Z,19.50
2018-08-17T15:37:58.994Z,19.80
2018-08-17T15:40:31.743Z,20.80
2018-08-17T15:43:11.056Z,21.40
2018-08-17T15:45:43.666Z,21.80
2018-08-17T15:48:16.275Z,22.70
2018-08-17T15:50:49.004Z,23.00
2018-08-17T15:53:21.643Z,23.00
2018-08-17T15:55:53.784Z,23.30
2018-08-17T15:58:26.340Z,22.70
2018-08-17T16:00:58.962Z,23.00
2018-08-17T16:03:31.807Z,23.30
2018-08-17T16:06:03.918Z,23.20
2018-08-17T16:08:36.387Z,23.40
2018-08-17T16:11:09.450Z,23.70
2018-08-17T16:13:41.952Z,23.90
2018-08-17T16:16:14.581Z,24.30
2018-08-17T16:18:47.171Z,24.90
2018-08-17T16:21:19.601Z,25.20
2018-08-17T16:23:51.926Z,25.80
2018-08-17T16:26:24.721Z,25.50
2018-08-17T16:28:57.400Z,26.20
2018-08-17T16:31:30.234Z,27.10
2018-08-17T16:34:02.760Z,27.10
2018-08-17T16:36:38.318Z,26.30
2018-08-17T16:39:18.254Z,26.90
2018-08-17T16:41:50.476Z,27.60
2018-08-17T16:44:23.253Z,27.50
2018-08-17T16:46:55.741Z,27.20
2018-08-17T16:49:28.130Z,27.10
2018-08-17T16:52:00.283Z,28.00
2018-08-17T16:54:32.974Z,27.10
2018-08-17T16:57:05.358Z,26.90
2018-08-17T16:59:38.090Z,26.80
2018-08-17T17:02:10.877Z,27.40
2018-08-17T17:04:44.232Z,27.10
2018-08-17T17:07:16.703Z,27.60
2018-08-17T17:09:49.228Z,26.90
2018-08-17T17:12:21.922Z,25.80
2018-08-17T17:14:54.568Z,25.70
2018-08-17T17:17:27.135Z,26.10
2018-08-17T17:19:59.369Z,25.80
2018-08-17T17:22:32.494Z,26.40
2018-08-17T17:25:10.343Z,26.80
2018-08-17T17:27:43.466Z,26.60
2018-08-17T17:30:16.474Z,26.30
2018-08-17T17:32:49.088Z,25.90
2018-08-17T17:35:21.585Z,24.80
2018-08-17T17:37:54.231Z,24.40
2018-08-17T17:40:26.563Z,24.10
2018-08-17T17:42:59.171Z,23.50
2018-08-17T17:45:31.805Z,23.10
2018-08-17T17:48:04.893Z,23.30
2018-08-17T17:50:37.389Z,23.10
2018-08-17T17:53:09.777Z,23.00
2018-08-17T17:55:47.202Z,22.80
2018-08-17T17:58:20.776Z,22.40
2018-08-17T18:01:00.483Z,22.00
2018-08-17T18:03:33.459Z,21.90
2018-08-17T18:06:09.907Z,20.70
2018-08-17T18:08:42.783Z,20.50
2018-08-17T18:11:15.346Z,20.70
2018-08-17T18:13:47.659Z,20.30
2018-08-17T18:16:19.876Z,19.60
2018-08-17T18:18:52.337Z,19.90
2018-08-17T18:21:27.324Z,20.00
2018-08-17T18:24:03.991Z,20.10
2018-08-17T18:26:36.600Z,20.10
2018-08-17T18:29:09.146Z,20.30
2018-08-17T18:31:41.762Z,20.60
2018-08-17T18:34:15.032Z,20.50
2018-08-17T18:36:47.953Z,20.80
2018-08-17T18:39:20.269Z,20.60
2018-08-17T18:41:53.511Z,20.50
2018-08-17T18:44:29.444Z,20.70
2018-08-17T18:47:02.037Z,20.70
2018-08-17T18:49:34.648Z,20.80
2018-08-17T18:52:07.072Z,20.90
2018-08-17T18:54:39.473Z,21.40
2018-08-17T18:57:11.908Z,21.50
2018-08-17T18:59:44.706Z,21.70
2018-08-17T19:02:17.002Z,22.20
2018-08-17T19:04:49.539Z,22.60
2018-08-17T19:07:21.847Z,23.10
2018-08-17T19:09:54.438Z,23.60
2018-08-17T19:12:27.210Z,23.70
2018-08-17T19:14:59.821Z,23.90
2018-08-17T19:17:35.545Z,24.60
2018-08-17T19:20:08.476Z,25.10
2018-08-17T19:22:43.546Z,25.10
2018-08-17T19:28:06.990Z,25.90
2018-08-17T19:30:39.184Z,25.70
2018-08-17T19:38:52.440Z,26.00
2018-08-17T19:41:24.989Z,26.30
2018-08-17T19:43:57.172Z,26.50
2018-08-17T19:46:30.270Z,26.90
2018-08-17T19:49:02.775Z,26.60
2018-08-17T19:51:35.528Z,26.90
2018-08-17T19:54:07.810Z,27.40
2018-08-17T19:56:40.160Z,27.10
2018-08-17T19:59:12.718Z,26.80
2018-08-17T20:01:45.244Z,26.50
2018-08-17T20:04:17.723Z,26.00
2018-08-17T20:06:50.405Z,25.80
2018-08-17T20:09:22.890Z,25.50
2018-08-17T20:11:55.677Z,25.20
2018-08-17T20:14:28.100Z,24.70
2018-08-17T20:17:00.706Z,24.20
2018-08-17T20:19:38.402Z,24.00
2018-08-17T20:22:17.109Z,23.80
2018-08-17T20:24:49.271Z,23.70
2018-08-17T20:27:22.094Z,23.60
2018-08-17T20:29:54.871Z,23.30
2018-08-17T20:32:27.151Z,23.30
2018-08-17T20:34:59.988Z,23.00
2018-08-17T20:37:32.502Z,23.00
2018-08-17T20:40:05.477Z,23.00
2018-08-17T20:42:38.689Z,23.00
2018-08-17T20:45:11.764Z,23.00
2018-08-17T20:47:44.563Z,23.10
2018-08-17T20:50:18.835Z,23.00
2018-08-17T20:52:59.684Z,22.70
2018-08-17T20:55:32.329Z,22.90
2018-08-17T20:58:04.809Z,22.90
2018-08-17T21:00:37.475Z,23.00
2018-08-17T21:03:10.055Z,23.10
2018-08-17T21:05:42.646Z,23.10
2018-08-17T21:08:15.070Z,23.30
2018-08-17T21:10:47.325Z,23.40
2018-08-17T21:13:19.596Z,23.40
2018-08-17T21:15:52.040Z,23.40
2018-08-17T21:18:24.405Z,23.40
2018-08-17T21:20:56.706Z,23.40
2018-08-17T21:23:29.331Z,23.30
2018-08-17T21:26:01.895Z,23.30
2018-08-17T21:28:34.370Z,23.40
2018-08-17T21:31:06.744Z,23.50
2018-08-17T21:33:39.913Z,23.60
2018-08-17T21:36:12.351Z,23.60
2018-08-17T21:38:44.771Z,23.60
2018-08-17T21:41:17.186Z,23.70
2018-08-17T21:43:50.261Z,23.80
2018-08-17T21:46:22.735Z,23.90
2018-08-17T21:48:54.937Z,24.00
2018-08-17T21:51:32.133Z,24.00
2018-08-17T21:54:06.426Z,24.00
2018-08-17T21:56:39.382Z,24.00
2018-08-17T21:59:11.734Z,24.00
2018-08-17T22:01:44.086Z,24.00
2018-08-17T22:04:16.745Z,24.10
2018-08-17T22:06:49.482Z,24.20
2018-08-17T22:09:30.795Z,24.00
2018-08-17T22:12:05.833Z,24.10
2018-08-17T22:14:38.275Z,24.20
2018-08-17T22:17:43.610Z,24.20
2018-08-17T22:20:15.983Z,24.20
2018-08-17T22:22:48.739Z,24.10
2018-08-17T22:25:20.943Z,24.10
2018-08-17T22:27:53.181Z,24.10
2018-08-17T22:30:27.011Z,24.10
2018-08-17T22:32:59.481Z,24.30
2018-08-17T22:35:31.817Z,24.30
2018-08-17T22:38:04.175Z,24.40
2018-08-17T22:40:36.707Z,24.50
2018-08-17T22:43:08.996Z,24.60
2018-08-17T22:45:41.502Z,24.70
2018-08-17T22:48:14.546Z,24.80
2018-08-17T22:50:46.998Z,24.80
2018-08-17T22:53:19.508Z,24.80
2018-08-17T22:55:51.737Z,24.80
2018-08-17T22:58:23.927Z,24.80
2018-08-17T23:00:56.513Z,24.80
2018-08-17T23:03:29.566Z,24.90
2018-08-17T23:06:01.927Z,25.00
2018-08-17T23:08:34.354Z,25.00
2018-08-17T23:11:08.278Z,25.00
2018-08-17T23:13:41.287Z,24.90
2018-08-17T23:16:13.682Z,24.90
2018-08-17T23:18:45.567Z,25.00
2018-08-17T23:21:17.502Z,24.90
2018-08-17T23:23:50.011Z,25.00
2018-08-17T23:26:22.482Z,25.00
2018-08-17T23:28:54.810Z,25.00
2018-08-17T23:31:27.106Z,25.10
2018-08-17T23:33:59.787Z,25.20
2018-08-17T23:36:32.315Z,25.10
2018-08-17T23:39:05.139Z,25.20
2018-08-17T23:41:37.788Z,25.20
2018-08-17T23:44:10.087Z,25.30
2018-08-17T23:46:42.821Z,25.20
2018-08-17T23:49:15.217Z,25.30
2018-08-17T23:51:47.832Z,25.30
2018-08-17T23:54:20.350Z,25.30
2018-08-17T23:56:52.998Z,25.20
2018-08-17T23:59:25.304Z,25.30
